createdAt,value
2022-11-12T00:00:27.000Z,5.85
2022-11-12T00:02:57.263Z,5.75
2022-11-12T00:05:26.033Z,5.85
2022-11-12T00:07:55.432Z,5.50
2022-11-12T00:10:23.902Z,6.35
2022-11-12T00:12:52.810Z,6.68
2022-11-12T00:15:21.240Z,6.65
2022-11-12T00:17:51.223Z,5.43
2022-11-12T00:20:20.897Z,6.18
2022-11-12T00:22:50.199Z,6.20
2022-11-12T00:25:19.643Z,5.60
2022-11-12T00:27:48.100Z,6.20
2022-11-12T00:30:19.490Z,6.55
2022-11-12T00:32:50.740Z,6.13
2022-11-12T00:35:24.888Z,5.85
2022-11-12T00:37:59.177Z,5.75
2022-11-12T00:40:30.391Z,6.00
2022-11-12T00:42:59.138Z,5.78
2022-11-12T00:45:27.325Z,5.90
2022-11-12T00:47:57.914Z,5.43
2022-11-12T00:50:26.202Z,5.78
2022-11-12T00:52:57.901Z,6.35
2022-11-12T00:55:26.221Z,5.93
2022-11-12T00:57:55.626Z,5.70
2022-11-12T01:00:26.721Z,5.43
2022-11-12T01:02:55.266Z,6.20
2022-11-12T01:05:23.638Z,5.68
2022-11-12T01:07:57.167Z,5.28
2022-11-12T01:10:28.081Z,6.32
2022-11-12T01:13:00.032Z,6.00
2022-11-12T01:15:29.496Z,7.72
2022-11-12T01:17:57.549Z,6.65
2022-11-12T01:20:27.616Z,6.65
2022-11-12T01:22:55.599Z,5.78
2022-11-12T01:25:24.961Z,5.22
2022-11-12T01:27:55.782Z,6.40
2022-11-12T01:30:26.374Z,5.05
2022-11-12T01:32:54.771Z,4.95
2022-11-12T01:35:23.024Z,5.32
2022-11-12T01:37:53.473Z,4.35
2022-11-12T01:40:21.628Z,4.63
2022-11-12T01:42:53.249Z,4.43
2022-11-12T01:45:23.511Z,4.88
2022-11-12T01:47:53.782Z,4.60
2022-11-12T01:50:25.917Z,5.03
2022-11-12T01:53:00.348Z,5.45
2022-11-12T01:55:31.179Z,4.78
2022-11-12T01:58:05.256Z,4.72
2022-11-12T02:00:35.628Z,4.43
2022-11-12T02:03:10.245Z,4.82
2022-11-12T02:05:42.288Z,4.18
2022-11-12T02:08:11.417Z,4.40
2022-11-12T02:10:42.417Z,4.30
2022-11-12T02:13:30.459Z,3.72
2022-11-12T02:16:01.633Z,4.47
2022-11-12T02:18:34.177Z,4.43
2022-11-12T02:21:14.293Z,4.15
2022-11-12T02:23:50.198Z,4.00
2022-11-12T02:26:18.200Z,3.58
2022-11-12T02:28:46.948Z,3.90
2022-11-12T02:31:17.313Z,4.38
2022-11-12T02:33:45.401Z,3.70
2022-11-12T02:36:13.801Z,3.35
2022-11-12T02:38:43.239Z,3.40
2022-11-12T02:41:13.088Z,3.90
2022-11-12T02:43:42.963Z,4.03
2022-11-12T02:46:11.567Z,3.83
2022-11-12T02:48:41.949Z,3.95
2022-11-12T02:51:10.391Z,3.70
2022-11-12T02:53:38.936Z,3.80
2022-11-12T02:56:07.353Z,3.83
2022-11-12T02:58:36.983Z,4.03
2022-11-12T03:01:07.096Z,3.92
2022-11-12T03:03:35.169Z,4.18
2022-11-12T03:06:03.541Z,4.32
2022-11-12T03:08:31.722Z,4.45
2022-11-12T03:11:00.301Z,4.53
2022-11-12T03:13:30.903Z,4.50
2022-11-12T03:16:05.325Z,4.97
2022-11-12T03:18:37.901Z,5.07
2022-11-12T03:21:10.770Z,4.60
2022-11-12T03:23:38.979Z,4.75
2022-11-12T03:26:08.344Z,4.80
2022-11-12T03:28:39.346Z,4.78
2022-11-12T03:31:08.902Z,4.90
2022-11-12T03:33:37.498Z,4.45
2022-11-12T03:36:06.201Z,4.53
2022-11-12T03:38:34.366Z,5.07
2022-11-12T03:41:04.061Z,5.45
2022-11-12T03:43:33.464Z,5.55
2022-11-12T03:46:02.755Z,4.45
2022-11-12T03:48:32.186Z,4.53
2022-11-12T03:51:02.779Z,5.22
2022-11-12T03:53:30.801Z,5.05
2022-11-12T03:56:00.112Z,4.68
2022-11-12T03:58:30.742Z,5.45
2022-11-12T04:00:59.426Z,5.50
2022-11-12T04:03:28.065Z,5.05
2022-11-12T04:06:14.550Z,5.28
2022-11-12T04:08:42.784Z,4.97
2022-11-12T04:11:12.947Z,5.78
2022-11-12T04:13:42.145Z,5.68
2022-11-12T04:16:30.455Z,4.88
2022-11-12T04:19:19.931Z,6.05
2022-11-12T04:21:56.094Z,6.05
2022-11-12T04:24:44.083Z,5.57
2022-11-12T04:27:17.298Z,4.72
2022-11-12T04:30:04.937Z,6.55
2022-11-12T04:32:35.797Z,5.00
2022-11-12T04:35:06.561Z,5.53
2022-11-12T04:37:45.518Z,4.97
2022-11-12T04:40:35.025Z,5.53
2022-11-12T04:43:22.743Z,4.78
2022-11-12T04:46:01.542Z,5.25
2022-11-12T04:48:33.756Z,6.00
2022-11-12T04:53:32.061Z,4.80
2022-11-12T04:56:01.162Z,6.18
2022-11-12T04:58:30.161Z,5.50
2022-11-12T05:01:00.180Z,5.95
2022-11-12T05:03:28.238Z,6.13
2022-11-12T05:06:03.724Z,6.78
2022-11-12T05:08:33.403Z,6.18
2022-11-12T05:11:01.357Z,5.88
2022-11-12T05:13:30.711Z,5.60
2022-11-12T05:16:01.686Z,6.63
2022-11-12T05:18:32.129Z,6.10
2022-11-12T05:21:28.669Z,6.25
2022-11-12T05:24:00.842Z,6.80
2022-11-12T05:26:30.618Z,6.78
2022-11-12T05:28:58.612Z,6.50
2022-11-12T05:31:29.415Z,6.80
2022-11-12T05:33:57.844Z,6.82
2022-11-12T05:36:26.088Z,6.30
2022-11-12T05:38:56.516Z,7.05
2022-11-12T05:41:26.240Z,8.55
2022-11-12T05:43:54.555Z,7.13
2022-11-12T05:46:23.913Z,7.35
2022-11-12T05:48:53.276Z,8.60
2022-11-12T05:51:24.447Z,8.48
2022-11-12T05:53:53.161Z,8.32
2022-11-12T05:56:26.059Z,7.95
2022-11-12T05:58:59.077Z,7.15
2022-11-12T06:01:28.811Z,8.00
2022-11-12T06:04:00.979Z,7.28
2022-11-12T06:06:29.480Z,7.90
2022-11-12T06:08:58.250Z,8.80
2022-11-12T06:11:27.263Z,8.20
2022-11-12T06:14:00.228Z,9.00
2022-11-12T06:16:29.204Z,8.23
2022-11-12T06:18:57.706Z,8.43
2022-11-12T06:21:28.963Z,8.85
2022-11-12T06:24:01.110Z,7.70
2022-11-12T06:26:33.818Z,8.75
2022-11-12T06:29:07.624Z,7.75
2022-11-12T06:31:35.641Z,8.35
2022-11-12T06:34:04.173Z,9.07
2022-11-12T06:36:32.294Z,9.20
2022-11-12T06:39:00.264Z,7.97
2022-11-12T06:41:31.187Z,9.40
2022-11-12T06:44:02.994Z,8.60
2022-11-12T06:46:32.051Z,7.60
2022-11-12T06:49:04.665Z,8.77
2022-11-12T06:51:33.290Z,7.82
2022-11-12T06:54:04.911Z,8.52
2022-11-12T06:56:34.012Z,8.93
2022-11-12T06:59:07.722Z,7.68
2022-11-12T07:01:37.341Z,7.40
2022-11-12T07:04:10.862Z,8.35
2022-11-12T07:06:40.266Z,8.50
2022-11-12T07:09:12.058Z,8.73
2022-11-12T07:11:40.019Z,8.52
2022-11-12T07:14:11.719Z,8.35
2022-11-12T07:16:40.567Z,7.78
2022-11-12T07:19:11.862Z,6.45
2022-11-12T07:21:40.377Z,7.07
2022-11-12T07:24:09.657Z,7.53
2022-11-12T07:26:41.911Z,7.45
2022-11-12T07:29:30.115Z,8.00
2022-11-12T07:32:09.044Z,6.40
2022-11-12T07:34:37.007Z,6.93
2022-11-12T07:37:06.987Z,6.28
2022-11-12T07:39:35.216Z,5.90
2022-11-12T07:42:03.721Z,6.47
2022-11-12T07:44:33.375Z,6.07
2022-11-12T07:47:03.998Z,6.32
2022-11-12T07:49:32.307Z,6.03
2022-11-12T07:52:00.814Z,6.32
2022-11-12T07:54:29.383Z,5.72
2022-11-12T07:56:58.059Z,5.95
2022-11-12T07:59:26.280Z,5.72
2022-11-12T08:02:04.409Z,6.78
2022-11-12T08:04:35.827Z,6.90
2022-11-12T08:07:05.085Z,6.43
2022-11-12T08:09:35.789Z,7.07
2022-11-12T08:12:12.901Z,6.57
2022-11-12T08:14:44.428Z,6.18
2022-11-12T08:17:13.859Z,6.93
2022-11-12T08:19:49.274Z,6.78
2022-11-12T08:22:17.608Z,6.55
2022-11-12T08:24:45.712Z,6.05
2022-11-12T08:27:14.069Z,6.10
2022-11-12T08:29:42.445Z,5.28
2022-11-12T08:32:11.095Z,6.40
2022-11-12T08:34:44.079Z,6.28
2022-11-12T08:37:13.479Z,5.65
2022-11-12T08:39:41.795Z,5.10
2022-11-12T08:42:11.599Z,5.50
2022-11-12T08:44:41.538Z,5.85
2022-11-12T08:47:12.256Z,4.88
2022-11-12T08:49:48.071Z,5.28
2022-11-12T08:52:16.722Z,5.20
2022-11-12T08:54:47.145Z,5.43
2022-11-12T08:57:15.387Z,5.55
2022-11-12T08:59:44.811Z,5.30
2022-11-12T09:02:14.453Z,5.25
2022-11-12T09:04:46.465Z,6.05
2022-11-12T09:10:15.677Z,4.82
2022-11-12T09:12:43.954Z,5.10
2022-11-12T09:15:44.403Z,4.35
2022-11-12T09:18:05.925Z,4.55
2022-11-12T09:20:37.106Z,4.63
2022-11-12T09:23:09.480Z,5.43
2022-11-12T09:28:14.783Z,5.50
2022-11-12T09:30:47.486Z,5.40
2022-11-12T09:33:16.770Z,6.63
2022-11-12T09:35:47.192Z,5.70
2022-11-12T09:38:16.619Z,6.03
2022-11-12T09:41:01.646Z,5.68
2022-11-12T09:43:32.911Z,6.85
2022-11-12T09:49:01.938Z,5.75
2022-11-12T09:51:34.008Z,6.07
2022-11-12T09:54:07.072Z,6.55
2022-11-12T09:56:35.221Z,6.25
2022-11-12T09:59:03.539Z,6.93
2022-11-12T10:01:43.403Z,7.07
2022-11-12T10:04:25.813Z,7.28
2022-11-12T10:07:03.177Z,8.27
2022-11-12T10:09:38.316Z,8.27
2022-11-12T10:12:34.049Z,8.05
2022-11-12T10:15:40.000Z,8.40
2022-11-12T10:18:14.038Z,8.50
2022-11-12T10:20:47.812Z,9.38
2022-11-12T10:23:21.677Z,9.75
2022-11-12T10:25:51.437Z,10.70
2022-11-12T10:28:35.666Z,12.10
2022-11-12T10:31:13.743Z,11.10
2022-11-12T10:33:43.589Z,12.82
2022-11-12T10:36:33.416Z,13.02
2022-11-12T10:39:03.192Z,14.35
2022-11-12T10:41:33.610Z,12.20
2022-11-12T10:44:05.593Z,12.50
2022-11-12T10:46:36.313Z,12.57
2022-11-12T10:49:07.042Z,13.07
2022-11-12T10:51:39.622Z,12.98
2022-11-12T10:54:31.023Z,13.38
2022-11-12T10:57:17.232Z,13.02
2022-11-12T10:59:45.272Z,14.00
2022-11-12T11:02:17.416Z,13.43
2022-11-12T11:04:47.062Z,12.23
2022-11-12T11:07:22.609Z,13.85
2022-11-12T11:09:56.763Z,11.57
2022-11-12T11:12:27.378Z,13.25
2022-11-12T11:15:10.835Z,11.65
2022-11-12T11:17:39.841Z,12.20
2022-11-12T11:20:17.147Z,12.57
2022-11-12T11:22:47.571Z,13.10
2022-11-12T11:25:20.873Z,13.38
2022-11-12T11:28:05.740Z,11.18
2022-11-12T11:30:38.348Z,12.00
2022-11-12T11:33:20.297Z,12.38
2022-11-12T11:35:56.330Z,12.32
2022-11-12T11:38:36.740Z,12.85
2022-11-12T11:41:18.245Z,13.02
2022-11-12T11:44:03.376Z,12.85
2022-11-12T11:46:51.688Z,13.65
2022-11-12T11:49:39.991Z,13.35
2022-11-12T11:52:28.521Z,14.55
2022-11-12T11:55:07.004Z,13.40
2022-11-12T11:57:45.321Z,14.25
2022-11-12T12:00:19.353Z,14.85
2022-11-12T12:03:18.381Z,14.40
2022-11-12T12:05:55.010Z,14.75
2022-11-12T12:08:29.153Z,14.50
2022-11-12T12:11:09.776Z,15.30
2022-11-12T12:13:54.802Z,13.48
2022-11-12T12:16:43.937Z,13.68
2022-11-12T12:19:24.156Z,14.48
2022-11-12T12:21:52.593Z,13.88
2022-11-12T12:24:25.128Z,13.70
2022-11-12T12:26:55.673Z,14.68
2022-11-12T12:29:32.492Z,11.25
2022-11-12T12:32:03.818Z,11.85
2022-11-12T12:34:36.442Z,11.45
2022-11-12T12:37:09.062Z,12.68
2022-11-12T12:42:18.341Z,12.23
2022-11-12T12:45:03.052Z,12.13
2022-11-12T12:47:35.612Z,13.05
2022-11-12T12:50:16.059Z,12.70
2022-11-12T12:53:00.923Z,13.07
2022-11-12T12:55:39.877Z,13.38
2022-11-12T12:58:23.350Z,13.38
2022-11-12T13:00:54.793Z,13.77
2022-11-12T13:03:52.183Z,11.95
2022-11-12T13:06:28.783Z,12.25
2022-11-12T13:09:02.077Z,11.18
2022-11-12T13:12:06.782Z,10.63
2022-11-12T13:14:59.381Z,11.02
2022-11-12T13:17:53.791Z,10.63
2022-11-12T13:20:40.900Z,9.95
2022-11-12T13:24:00.972Z,10.45
2022-11-12T13:26:59.347Z,9.77
2022-11-12T13:29:46.242Z,11.85
2022-11-12T13:32:32.311Z,11.15
2022-11-12T13:35:26.542Z,11.10
2022-11-12T13:37:57.865Z,11.93
2022-11-12T13:40:39.347Z,12.23
2022-11-12T13:43:32.678Z,12.10
2022-11-12T13:46:13.750Z,13.27
2022-11-12T13:48:44.245Z,12.45
2022-11-12T13:51:25.013Z,12.20
2022-11-12T13:53:56.977Z,11.95
2022-11-12T13:56:30.785Z,12.65
2022-11-12T13:59:11.927Z,12.90
2022-11-12T14:01:41.185Z,12.27
2022-11-12T14:04:11.921Z,12.13
2022-11-12T14:06:44.509Z,12.00
2022-11-12T14:09:24.004Z,12.07
2022-11-12T14:12:06.979Z,12.20
2022-11-12T14:14:43.971Z,11.60
2022-11-12T14:17:22.640Z,12.68
2022-11-12T14:20:41.533Z,13.02
2022-11-12T14:23:24.494Z,11.43
2022-11-12T14:25:54.698Z,12.45
2022-11-12T14:28:35.925Z,12.65
2022-11-12T14:31:07.456Z,12.82
2022-11-12T14:33:42.917Z,13.00
2022-11-12T14:36:17.329Z,13.18
2022-11-12T14:38:50.715Z,14.05
2022-11-12T14:41:21.916Z,13.07
2022-11-12T14:44:10.925Z,12.90
2022-11-12T14:46:56.229Z,14.02
2022-11-12T14:49:31.410Z,14.27
2022-11-12T14:52:07.306Z,14.23
2022-11-12T14:54:40.747Z,13.48
2022-11-12T14:57:14.040Z,13.25
2022-11-12T14:59:43.208Z,12.85
2022-11-12T15:02:46.858Z,13.95
2022-11-12T15:05:17.496Z,14.33
2022-11-12T15:07:55.716Z,14.47
2022-11-12T15:10:34.786Z,14.20
2022-11-12T15:13:05.060Z,13.20
2022-11-12T15:15:34.582Z,15.18
2022-11-12T15:18:06.071Z,14.43
2022-11-12T15:23:17.890Z,15.32
2022-11-12T15:25:58.644Z,14.90
2022-11-12T15:28:30.703Z,14.23
2022-11-12T15:31:12.247Z,14.77
2022-11-12T15:33:40.604Z,14.77
2022-11-12T15:36:16.737Z,14.65
2022-11-12T15:38:50.121Z,15.02
2022-11-12T15:41:26.398Z,15.98
2022-11-12T15:43:54.748Z,14.70
2022-11-12T15:46:23.471Z,16.10
2022-11-12T15:48:56.292Z,14.85
2022-11-12T15:51:24.526Z,18.88
2022-11-12T15:53:57.944Z,17.77
2022-11-12T15:56:27.290Z,15.15
2022-11-12T15:58:56.125Z,16.13
2022-11-12T16:01:24.504Z,16.85
2022-11-12T16:03:52.923Z,19.27
2022-11-12T16:06:21.437Z,17.13
2022-11-12T16:08:55.869Z,16.58
2022-11-12T16:11:39.014Z,15.35
2022-11-12T16:14:12.116Z,16.52
2022-11-12T16:16:43.891Z,17.48
2022-11-12T16:19:17.702Z,16.13
2022-11-12T16:21:46.332Z,16.38
2022-11-12T16:24:14.687Z,17.83
2022-11-12T16:26:43.135Z,16.85
2022-11-12T16:29:16.607Z,15.02
2022-11-12T16:31:47.360Z,16.70
2022-11-12T16:34:16.779Z,19.25
2022-11-12T16:36:46.712Z,17.50
2022-11-12T16:39:15.273Z,17.88
2022-11-12T16:41:43.622Z,15.27
2022-11-12T16:44:17.706Z,15.68
2022-11-12T16:46:45.718Z,18.27
2022-11-12T16:49:15.183Z,18.20
2022-11-12T16:51:43.307Z,19.42
2022-11-12T16:54:11.682Z,19.13
2022-11-12T16:56:40.982Z,21.42
2022-11-12T16:59:14.995Z,19.38
2022-11-12T17:01:46.741Z,20.10
2022-11-12T17:04:17.830Z,21.20
2022-11-12T17:06:47.190Z,19.88
2022-11-12T17:09:17.392Z,19.25
2022-11-12T17:11:47.693Z,20.08
2022-11-12T17:14:18.410Z,21.25
2022-11-12T17:16:46.384Z,20.80
2022-11-12T17:19:15.148Z,20.40
2022-11-12T17:21:47.995Z,17.85
2022-11-12T17:24:16.454Z,17.90
2022-11-12T17:26:44.442Z,19.98
2022-11-12T17:29:14.064Z,23.70
2022-11-12T17:31:53.117Z,23.95
2022-11-12T17:34:22.136Z,23.58
2022-11-12T17:36:50.212Z,26.27
2022-11-12T17:39:18.419Z,27.73
2022-11-12T17:41:46.968Z,27.25
2022-11-12T17:44:17.448Z,28.67
2022-11-12T17:46:50.451Z,27.90
2022-11-12T17:49:19.661Z,27.90
2022-11-12T17:51:47.681Z,27.95
2022-11-12T17:54:18.612Z,28.98
2022-11-12T17:56:50.838Z,27.10
2022-11-12T17:59:19.231Z,28.08
2022-11-12T18:01:48.622Z,25.25
2022-11-12T18:04:19.251Z,26.42
2022-11-12T18:06:47.939Z,25.70
2022-11-12T18:09:16.326Z,27.30
2022-11-12T18:11:46.668Z,28.25
2022-11-12T18:14:15.100Z,27.73
2022-11-12T18:16:43.519Z,28.42
2022-11-12T18:19:15.367Z,29.23
2022-11-12T18:21:45.700Z,30.13
2022-11-12T18:24:15.525Z,32.40
2022-11-12T18:26:45.651Z,31.80
2022-11-12T18:29:13.664Z,30.65
2022-11-12T18:31:44.206Z,32.13
2022-11-12T18:34:16.813Z,32.00
2022-11-12T18:36:46.915Z,31.15
2022-11-12T18:39:15.330Z,31.92
2022-11-12T18:41:45.783Z,28.17
2022-11-12T18:44:19.029Z,29.60
2022-11-12T18:46:53.093Z,30.95
2022-11-12T18:49:22.459Z,28.90
2022-11-12T18:51:53.041Z,30.75
2022-11-12T18:54:21.221Z,29.23
2022-11-12T18:56:49.459Z,31.40
2022-11-12T18:59:17.775Z,31.27
2022-11-12T19:01:45.895Z,31.42
2022-11-12T19:04:14.142Z,34.72
2022-11-12T19:06:43.988Z,40.08
2022-11-12T19:09:14.177Z,37.67
2022-11-12T19:11:44.464Z,43.67
2022-11-12T19:14:12.586Z,43.00
2022-11-12T19:16:44.815Z,40.65
2022-11-12T19:21:41.129Z,37.28
2022-11-12T19:24:10.478Z,38.90
2022-11-12T19:26:46.348Z,39.72
2022-11-12T19:29:14.580Z,41.33
2022-11-12T19:31:43.013Z,37.88
2022-11-12T19:34:13.566Z,42.95
2022-11-12T19:36:43.178Z,43.45
2022-11-12T19:39:14.347Z,40.55
2022-11-12T19:41:42.313Z,40.60
2022-11-12T19:44:10.460Z,44.65
2022-11-12T19:46:39.009Z,42.65
2022-11-12T19:49:10.391Z,40.38
2022-11-12T19:51:38.354Z,45.40
2022-11-12T19:54:09.977Z,39.38
2022-11-12T19:56:39.903Z,39.85
2022-11-12T19:59:08.133Z,36.38
2022-11-12T20:01:37.669Z,41.38
2022-11-12T20:04:11.920Z,44.15
2022-11-12T20:06:40.245Z,43.38
2022-11-12T20:09:10.213Z,45.95
2022-11-12T20:11:42.329Z,45.70
2022-11-12T20:14:18.993Z,48.25
2022-11-12T20:16:47.103Z,49.67
2022-11-12T20:19:23.797Z,49.75
2022-11-12T20:21:55.124Z,51.22
2022-11-12T20:24:25.101Z,52.65
2022-11-12T20:26:58.757Z,55.70
2022-11-12T20:29:29.170Z,54.70
2022-11-12T20:31:58.897Z,55.38
2022-11-12T20:34:27.157Z,53.72
2022-11-12T20:36:58.393Z,52.97
2022-11-12T20:39:26.861Z,55.85
2022-11-12T20:42:01.089Z,56.80
2022-11-12T20:44:32.519Z,56.30
2022-11-12T20:47:01.590Z,56.85
2022-11-12T20:49:31.936Z,55.10
2022-11-12T20:52:01.562Z,53.88
2022-11-12T20:54:29.839Z,52.55
2022-11-12T20:57:01.155Z,55.05
2022-11-12T20:59:29.253Z,58.13
2022-11-12T21:01:58.775Z,58.78
2022-11-12T21:04:28.516Z,55.67
2022-11-12T21:07:01.067Z,55.53
2022-11-12T21:09:38.432Z,56.78
2022-11-12T21:12:13.333Z,58.45
2022-11-12T21:14:44.810Z,55.63
2022-11-12T21:17:15.574Z,56.17
2022-11-12T21:19:44.242Z,58.75
2022-11-12T21:22:14.858Z,56.58
2022-11-12T21:24:43.751Z,58.85
2022-11-12T21:27:14.926Z,52.72
2022-11-12T21:29:44.950Z,56.97
2022-11-12T21:32:12.955Z,55.13
2022-11-12T21:34:41.315Z,55.67
2022-11-12T21:37:11.735Z,56.90
2022-11-12T21:39:39.953Z,53.97
2022-11-12T21:42:10.892Z,56.00
2022-11-12T21:44:42.785Z,55.63
2022-11-12T21:47:12.021Z,53.10
2022-11-12T21:49:40.078Z,54.92
2022-11-12T21:52:09.341Z,52.33
2022-11-12T21:54:41.207Z,54.30
2022-11-12T21:57:16.111Z,54.20
2022-11-12T21:59:47.914Z,54.63
2022-11-12T22:02:19.407Z,52.45
2022-11-12T22:04:49.481Z,52.45
2022-11-12T22:07:17.842Z,53.53
2022-11-12T22:09:46.144Z,52.42
2022-11-12T22:12:14.274Z,52.15
2022-11-12T22:14:42.485Z,52.72
2022-11-12T22:17:11.847Z,49.10
2022-11-12T22:19:42.437Z,50.63
2022-11-12T22:22:10.598Z,51.78
2022-11-12T22:24:38.804Z,54.58
2022-11-12T22:27:07.987Z,55.35
2022-11-12T22:29:38.794Z,52.15
2022-11-12T22:32:06.826Z,52.40
2022-11-12T22:34:37.702Z,53.33
2022-11-12T22:37:05.986Z,52.85
2022-11-12T22:39:34.475Z,53.05
2022-11-12T22:42:02.480Z,53.17
2022-11-12T22:44:30.915Z,54.28
2022-11-12T22:46:59.077Z,51.88
2022-11-12T22:49:27.475Z,53.88
2022-11-12T22:51:57.006Z,51.15
2022-11-12T22:54:25.680Z,53.97
2022-11-12T22:56:53.909Z,53.95
2022-11-12T22:59:22.254Z,55.22
2022-11-12T23:01:50.253Z,50.38
2022-11-12T23:04:21.173Z,52.28
2022-11-12T23:06:49.514Z,51.72
2022-11-12T23:09:19.194Z,52.55
2022-11-12T23:11:47.365Z,53.25
2022-11-12T23:14:16.246Z,50.63
2022-11-12T23:16:45.286Z,52.10
2022-11-12T23:19:18.659Z,51.10
2022-11-12T23:21:47.373Z,49.72
2022-11-12T23:24:15.959Z,54.97
2022-11-12T23:26:45.601Z,50.42
2022-11-12T23:29:14.595Z,52.88
2022-11-12T23:31:44.615Z,51.15
2022-11-12T23:34:12.909Z,49.95
2022-11-12T23:36:40.877Z,51.05
2022-11-12T23:39:09.235Z,49.75
2022-11-12T23:41:37.562Z,49.60
2022-11-12T23:44:07.283Z,51.55
2022-11-12T23:46:37.856Z,50.40
2022-11-12T23:49:08.257Z,50.00
2022-11-12T23:51:36.418Z,51.65
2022-11-12T23:54:04.566Z,47.95
2022-11-12T23:56:33.147Z,47.72
2022-11-12T23:59:05.099Z,50.15
